createdAt,value
2022-12-24T00:01:37.284Z,80.88
2022-12-24T00:04:05.710Z,80.65
2022-12-24T00:06:33.920Z,78.22
2022-12-24T00:09:02.265Z,86.28
2022-12-24T00:11:30.591Z,90.70
2022-12-24T00:13:58.853Z,82.68
2022-12-24T00:16:27.416Z,80.85
2022-12-24T00:18:55.700Z,73.85
2022-12-24T00:21:23.996Z,76.22
2022-12-24T00:23:52.240Z,78.18
2022-12-24T00:26:20.452Z,82.95
2022-12-24T00:28:48.746Z,85.07
2022-12-24T00:31:18.848Z,88.32
2022-12-24T00:33:48.225Z,79.75
2022-12-24T00:36:17.301Z,79.22
2022-12-24T00:38:45.670Z,76.60
2022-12-24T00:41:29.825Z,80.80
2022-12-24T00:43:59.693Z,83.32
2022-12-24T00:46:30.842Z,79.60
2022-12-24T00:48:59.501Z,83.88
2022-12-24T00:51:31.331Z,79.30
2022-12-24T00:54:00.183Z,86.47
2022-12-24T00:56:28.464Z,78.82
2022-12-24T00:58:56.724Z,85.57
2022-12-24T01:01:26.327Z,73.80
2022-12-24T01:04:15.367Z,72.97
2022-12-24T01:06:44.216Z,77.57
2022-12-24T01:09:12.500Z,81.72
2022-12-24T01:11:40.868Z,82.85
2022-12-24T01:14:09.034Z,79.60
2022-12-24T01:16:37.249Z,79.03
2022-12-24T01:19:05.505Z,76.18
2022-12-24T01:21:34.135Z,78.00
2022-12-24T01:24:02.333Z,77.30
2022-12-24T01:26:30.558Z,82.72
2022-12-24T01:28:59.517Z,83.35
2022-12-24T01:31:30.252Z,74.82
2022-12-24T01:33:58.607Z,89.50
2022-12-24T01:36:26.920Z,82.30
2022-12-24T01:38:55.145Z,82.97
2022-12-24T01:41:42.734Z,78.15
2022-12-24T01:44:23.082Z,76.20
2022-12-24T01:47:05.073Z,80.53
2022-12-24T01:49:33.804Z,85.97
2022-12-24T01:52:10.972Z,80.13
2022-12-24T01:55:08.018Z,80.47
2022-12-24T01:57:49.669Z,79.45
2022-12-24T02:00:18.332Z,81.32
2022-12-24T02:02:50.802Z,81.28
2022-12-24T02:05:42.237Z,83.03
2022-12-24T02:08:11.158Z,79.75
2022-12-24T02:10:39.425Z,78.20
2022-12-24T02:13:08.487Z,76.05
2022-12-24T02:15:51.538Z,76.00
2022-12-24T02:18:31.369Z,79.10
2022-12-24T02:21:11.188Z,81.13
2022-12-24T02:23:45.453Z,76.45
2022-12-24T02:26:46.410Z,78.57
2022-12-24T02:29:20.347Z,70.70
2022-12-24T02:32:09.084Z,74.05
2022-12-24T02:34:44.860Z,81.75
2022-12-24T02:37:38.235Z,71.25
2022-12-24T02:40:19.662Z,76.72
2022-12-24T02:42:54.417Z,78.45
2022-12-24T02:45:28.268Z,74.78
2022-12-24T02:47:57.668Z,65.38
2022-12-24T02:50:26.021Z,71.07
2022-12-24T02:52:54.368Z,69.82
2022-12-24T02:55:44.626Z,73.78
2022-12-24T02:58:15.895Z,73.18
2022-12-24T03:01:18.056Z,77.32
2022-12-24T03:04:10.399Z,76.28
2022-12-24T03:07:06.498Z,75.28
2022-12-24T03:09:53.888Z,73.03
2022-12-24T03:12:30.445Z,80.10
2022-12-24T03:15:00.092Z,79.00
2022-12-24T03:17:28.630Z,81.93
2022-12-24T03:19:56.875Z,80.45
2022-12-24T03:22:27.060Z,73.47
2022-12-24T03:24:56.350Z,73.47
2022-12-24T03:27:27.423Z,75.20
2022-12-24T03:29:56.353Z,79.30
2022-12-24T03:32:32.336Z,75.95
2022-12-24T03:35:01.040Z,77.40
2022-12-24T03:37:29.331Z,81.05
2022-12-24T03:39:57.521Z,78.25
2022-12-24T03:42:25.720Z,82.15
2022-12-24T03:44:53.893Z,78.38
2022-12-24T03:47:22.146Z,86.38
2022-12-24T03:49:50.539Z,72.85
2022-12-24T03:52:18.727Z,79.25
2022-12-24T03:54:46.975Z,84.78
2022-12-24T03:57:15.233Z,85.45
2022-12-24T03:59:43.444Z,83.25
2022-12-24T04:02:11.778Z,82.88
2022-12-24T04:04:41.265Z,80.30
2022-12-24T04:07:09.513Z,82.43
2022-12-24T04:09:38.219Z,81.68
2022-12-24T04:12:07.051Z,82.65
2022-12-24T04:14:35.308Z,82.80
2022-12-24T04:17:06.457Z,73.97
2022-12-24T04:19:35.091Z,79.80
2022-12-24T04:22:03.299Z,80.40
2022-12-24T04:24:31.461Z,82.38
2022-12-24T04:26:59.668Z,84.63
2022-12-24T04:29:27.906Z,77.40
2022-12-24T04:31:56.216Z,81.25
2022-12-24T04:34:24.484Z,70.50
2022-12-24T04:36:52.702Z,82.40
2022-12-24T04:39:20.913Z,69.47
2022-12-24T04:41:49.121Z,66.85
2022-12-24T04:44:17.387Z,58.40
2022-12-24T04:46:45.636Z,65.40
2022-12-24T04:49:13.940Z,62.10
2022-12-24T04:51:42.193Z,63.45
2022-12-24T04:54:10.388Z,63.95
2022-12-24T04:56:38.634Z,61.15
2022-12-24T04:59:06.918Z,58.10
2022-12-24T05:01:35.241Z,56.50
2022-12-24T05:04:03.553Z,63.35
2022-12-24T05:06:33.095Z,60.60
2022-12-24T05:09:02.975Z,62.40
2022-12-24T05:11:31.574Z,57.80
2022-12-24T05:13:59.869Z,58.92
2022-12-24T05:16:28.494Z,58.35
2022-12-24T05:18:56.724Z,60.05
2022-12-24T05:21:26.194Z,62.50
2022-12-24T05:24:13.252Z,61.95
2022-12-24T05:26:52.134Z,65.78
2022-12-24T05:29:20.720Z,58.78
2022-12-24T05:31:49.241Z,66.65
2022-12-24T05:34:17.911Z,69.10
2022-12-24T05:36:46.459Z,66.57
2022-12-24T05:39:18.915Z,70.82
2022-12-24T05:41:47.688Z,86.23
2022-12-24T05:44:17.553Z,80.53
2022-12-24T05:46:45.875Z,83.03
2022-12-24T05:49:17.531Z,86.20
2022-12-24T05:51:45.737Z,88.85
2022-12-24T05:54:13.968Z,86.25
2022-12-24T05:56:42.188Z,91.05
2022-12-24T05:59:10.401Z,95.90
2022-12-24T06:01:38.794Z,93.32
2022-12-24T06:04:07.256Z,89.75
2022-12-24T06:06:36.692Z,85.15
2022-12-24T06:09:04.911Z,81.55
2022-12-24T06:11:33.131Z,82.43
2022-12-24T06:14:01.302Z,69.18
2022-12-24T06:16:29.917Z,69.75
2022-12-24T06:18:58.168Z,65.82
2022-12-24T06:21:26.668Z,67.05
2022-12-24T06:23:54.908Z,65.90
2022-12-24T06:26:23.741Z,70.82
2022-12-24T06:28:52.439Z,68.13
2022-12-24T06:31:25.659Z,68.47
2022-12-24T06:36:25.880Z,71.35
2022-12-24T06:38:55.182Z,79.88
2022-12-24T06:41:24.031Z,76.93
2022-12-24T06:43:53.848Z,80.10
2022-12-24T06:46:25.011Z,74.13
2022-12-24T06:48:55.005Z,76.60
2022-12-24T06:51:23.271Z,64.05
2022-12-24T06:53:51.663Z,72.25
2022-12-24T06:56:21.681Z,73.28
2022-12-24T06:58:50.338Z,70.07
2022-12-24T07:01:20.803Z,69.30
2022-12-24T07:03:49.383Z,82.88
2022-12-24T07:06:27.474Z,68.22
2022-12-24T07:08:55.850Z,71.40
2022-12-24T07:11:26.858Z,72.97
2022-12-24T07:13:55.155Z,68.55
2022-12-24T07:16:23.515Z,78.75
2022-12-24T07:18:51.909Z,77.57
2022-12-24T07:21:20.093Z,75.38
2022-12-24T07:23:49.652Z,72.80
2022-12-24T07:26:17.854Z,73.70
2022-12-24T07:28:46.037Z,72.40
2022-12-24T07:31:14.397Z,80.35
2022-12-24T07:33:42.651Z,81.85
2022-12-24T07:36:22.796Z,82.65
2022-12-24T07:38:52.658Z,77.95
2022-12-24T07:41:21.059Z,80.43
2022-12-24T07:43:49.243Z,92.75
2022-12-24T07:46:17.451Z,92.15
2022-12-24T07:48:45.756Z,84.38
2022-12-24T07:51:13.935Z,93.05
2022-12-24T07:53:47.995Z,87.47
2022-12-24T07:56:16.914Z,83.32
2022-12-24T07:58:45.247Z,83.50
2022-12-24T08:01:13.617Z,80.70
2022-12-24T08:03:42.007Z,71.15
2022-12-24T08:06:10.784Z,86.18
2022-12-24T08:08:39.362Z,78.43
2022-12-24T08:11:08.464Z,79.90
2022-12-24T08:13:37.060Z,81.10
2022-12-24T08:16:06.183Z,78.10
2022-12-24T08:18:34.866Z,78.13
2022-12-24T08:21:06.749Z,75.30
2022-12-24T08:23:36.041Z,83.15
2022-12-24T08:26:06.785Z,77.95
2022-12-24T08:28:35.368Z,76.68
2022-12-24T08:31:04.212Z,83.10
2022-12-24T08:33:33.646Z,82.85
2022-12-24T08:36:02.827Z,82.38
2022-12-24T08:38:31.006Z,75.40
2022-12-24T08:40:59.213Z,75.55
2022-12-24T08:43:28.167Z,78.25
2022-12-24T08:45:56.459Z,86.05
2022-12-24T08:48:24.755Z,84.65
2022-12-24T08:50:52.950Z,81.50
2022-12-24T08:53:21.351Z,82.57
2022-12-24T08:55:55.699Z,83.90
2022-12-24T08:58:24.306Z,84.72
2022-12-24T09:00:52.656Z,87.05
2022-12-24T09:03:27.473Z,78.95
2022-12-24T09:05:56.458Z,79.32
2022-12-24T09:08:24.751Z,84.47
2022-12-24T09:10:52.965Z,80.57
2022-12-24T09:13:21.266Z,83.30
2022-12-24T09:15:56.098Z,84.28
2022-12-24T09:18:24.744Z,92.90
2022-12-24T09:20:58.446Z,87.43
2022-12-24T09:23:27.135Z,88.20
2022-12-24T09:25:55.452Z,91.78
2022-12-24T09:28:24.325Z,95.65
2022-12-24T09:31:01.219Z,87.88
2022-12-24T09:33:32.843Z,74.50
2022-12-24T09:36:01.364Z,83.25
2022-12-24T09:38:30.691Z,82.38
2022-12-24T09:41:05.350Z,83.45
2022-12-24T09:43:37.730Z,87.80
2022-12-24T09:46:29.315Z,80.53
2022-12-24T09:49:04.453Z,75.78
2022-12-24T09:51:57.011Z,80.88
2022-12-24T09:54:29.951Z,85.80
2022-12-24T09:57:04.868Z,84.35
2022-12-24T09:59:44.185Z,76.50
2022-12-24T10:02:20.025Z,83.70
2022-12-24T10:04:49.418Z,86.68
2022-12-24T10:07:26.692Z,85.50
2022-12-24T10:10:03.699Z,96.10
2022-12-24T10:13:00.209Z,91.63
2022-12-24T10:15:58.751Z,99.15
2022-12-24T10:18:44.212Z,98.82
2022-12-24T10:22:03.061Z,102.65
2022-12-24T10:24:55.804Z,91.40
2022-12-24T10:27:31.573Z,94.53
2022-12-24T10:30:05.061Z,98.70
2022-12-24T10:32:35.541Z,99.97
2022-12-24T10:35:41.912Z,98.07
2022-12-24T10:38:10.191Z,103.60
2022-12-24T10:40:48.666Z,111.85
2022-12-24T10:43:18.358Z,105.53
2022-12-24T10:46:15.411Z,106.75
2022-12-24T10:49:11.544Z,106.35
2022-12-24T10:52:11.809Z,116.30
2022-12-24T10:55:22.337Z,114.20
2022-12-24T10:58:06.229Z,112.93
2022-12-24T11:00:36.831Z,117.07
2022-12-24T11:03:22.622Z,117.13
2022-12-24T11:06:22.357Z,110.78
2022-12-24T11:08:50.592Z,129.82
2022-12-24T11:11:21.486Z,114.53
2022-12-24T11:13:55.413Z,120.40
2022-12-24T11:16:36.891Z,115.35
2022-12-24T11:19:16.631Z,118.68
2022-12-24T11:21:45.137Z,114.90
2022-12-24T11:24:13.369Z,108.80
2022-12-24T11:26:43.853Z,108.30
2022-12-24T11:29:24.292Z,99.93
2022-12-24T11:32:10.205Z,97.80
2022-12-24T11:34:43.007Z,97.57
2022-12-24T11:37:22.905Z,99.28
2022-12-24T11:39:58.060Z,98.57
2022-12-24T11:42:38.153Z,91.07
2022-12-24T11:45:23.086Z,93.65
2022-12-24T11:47:54.192Z,90.30
2022-12-24T11:50:36.929Z,91.45
2022-12-24T11:53:24.265Z,99.33
2022-12-24T11:55:56.261Z,96.57
2022-12-24T11:58:43.388Z,87.20
2022-12-24T12:01:26.857Z,93.03
2022-12-24T12:04:18.416Z,92.45
2022-12-24T12:06:58.806Z,84.57
2022-12-24T12:09:32.532Z,85.28
2022-12-24T12:12:14.233Z,83.15
2022-12-24T12:14:49.965Z,88.90
2022-12-24T12:17:55.778Z,88.47
2022-12-24T12:20:46.784Z,93.22
2022-12-24T12:23:24.138Z,96.20
2022-12-24T12:26:04.560Z,90.05
2022-12-24T12:28:45.933Z,92.65
2022-12-24T12:31:27.664Z,93.63
2022-12-24T12:34:02.975Z,98.35
2022-12-24T12:36:36.272Z,97.05
2022-12-24T12:39:04.881Z,90.63
2022-12-24T12:42:02.491Z,95.20
2022-12-24T12:45:01.258Z,94.00
2022-12-24T12:47:54.988Z,95.35
2022-12-24T12:50:39.784Z,98.43
2022-12-24T12:53:32.001Z,101.93
2022-12-24T12:56:21.238Z,99.68
2022-12-24T12:58:49.403Z,99.07
2022-12-24T13:01:40.109Z,113.18
2022-12-24T13:04:29.477Z,112.88
2022-12-24T13:07:22.061Z,116.57
2022-12-24T13:10:17.675Z,119.30
2022-12-24T13:13:01.774Z,113.90
2022-12-24T13:15:50.740Z,124.25
2022-12-24T13:18:45.455Z,124.95
2022-12-24T13:21:23.541Z,119.28
2022-12-24T13:24:04.363Z,114.07
2022-12-24T13:26:33.026Z,115.00
2022-12-24T13:29:31.473Z,116.20
2022-12-24T13:32:21.408Z,118.38
2022-12-24T13:35:17.705Z,121.18
2022-12-24T13:37:47.248Z,115.88
2022-12-24T13:40:17.708Z,113.57
2022-12-24T13:42:51.680Z,111.88
2022-12-24T13:45:35.048Z,110.35
2022-12-24T13:48:16.769Z,110.35
2022-12-24T13:50:52.403Z,108.78
2022-12-24T13:53:39.600Z,95.45
2022-12-24T13:56:13.616Z,94.72
2022-12-24T13:58:46.193Z,97.93
2022-12-24T14:01:18.699Z,95.10
2022-12-24T14:03:50.183Z,98.33
2022-12-24T14:06:41.202Z,98.90
2022-12-24T14:09:20.904Z,102.60
2022-12-24T14:12:03.984Z,94.80
2022-12-24T14:14:41.028Z,95.68
2022-12-24T14:17:22.797Z,93.28
2022-12-24T14:19:59.900Z,91.95
2022-12-24T14:22:44.194Z,97.18
2022-12-24T14:25:22.772Z,94.38
2022-12-24T14:28:03.374Z,96.28
2022-12-24T14:30:32.717Z,92.03
2022-12-24T14:33:03.521Z,90.05
2022-12-24T14:35:38.192Z,89.88
2022-12-24T14:38:18.789Z,90.57
2022-12-24T14:41:06.107Z,94.82
2022-12-24T14:43:52.995Z,96.32
2022-12-24T14:46:48.911Z,91.00
2022-12-24T14:49:36.851Z,91.95
2022-12-24T14:53:04.095Z,97.63
2022-12-24T14:55:37.571Z,87.43
2022-12-24T14:58:33.249Z,91.18
2022-12-24T15:01:04.264Z,89.25
2022-12-24T15:03:33.354Z,91.88
2022-12-24T15:06:06.452Z,96.80
2022-12-24T15:08:40.713Z,95.72
2022-12-24T15:11:17.789Z,86.20
2022-12-24T15:13:58.466Z,90.50
2022-12-24T15:16:35.322Z,98.45
2022-12-24T15:19:07.237Z,97.93
2022-12-24T15:21:41.630Z,94.15
2022-12-24T15:24:26.876Z,97.10
2022-12-24T15:26:55.925Z,89.13
2022-12-24T15:29:27.499Z,92.35
2022-12-24T15:32:01.060Z,96.93
2022-12-24T15:34:40.026Z,97.13
2022-12-24T15:37:21.819Z,91.22
2022-12-24T15:40:19.779Z,95.32
2022-12-24T15:42:51.136Z,94.82
2022-12-24T15:45:27.212Z,93.90
2022-12-24T15:48:00.520Z,92.72
2022-12-24T15:50:46.953Z,101.00
2022-12-24T15:53:36.530Z,93.32
2022-12-24T15:56:08.762Z,93.90
2022-12-24T15:58:41.420Z,99.38
2022-12-24T16:01:13.576Z,93.15
2022-12-24T16:03:52.199Z,99.97
2022-12-24T16:06:21.803Z,93.75
2022-12-24T16:08:51.939Z,103.15
2022-12-24T16:11:35.179Z,97.05
2022-12-24T16:14:21.231Z,91.50
2022-12-24T16:16:51.215Z,93.07
2022-12-24T16:19:26.274Z,93.40
2022-12-24T16:22:00.438Z,106.57
2022-12-24T16:24:30.891Z,100.38
2022-12-24T16:26:59.300Z,95.53
2022-12-24T16:29:27.712Z,99.55
2022-12-24T16:31:58.106Z,97.07
2022-12-24T16:34:30.175Z,105.03
2022-12-24T16:36:59.875Z,99.38
2022-12-24T16:39:34.155Z,96.38
2022-12-24T16:42:23.070Z,97.13
2022-12-24T16:44:54.066Z,101.32
2022-12-24T16:47:25.676Z,102.20
2022-12-24T16:49:54.298Z,100.78
2022-12-24T16:52:27.513Z,101.95
2022-12-24T16:54:58.538Z,95.85
2022-12-24T16:57:27.320Z,103.15
2022-12-24T16:59:55.827Z,104.28
2022-12-24T17:02:25.511Z,101.38
2022-12-24T17:04:54.736Z,106.55
2022-12-24T17:07:22.903Z,109.35
2022-12-24T17:09:51.253Z,119.40
2022-12-24T17:12:19.591Z,115.05
2022-12-24T17:14:47.934Z,110.82
2022-12-24T17:17:28.868Z,116.50
2022-12-24T17:19:58.145Z,117.15
2022-12-24T17:22:29.655Z,117.38
2022-12-24T17:24:58.006Z,122.07
2022-12-24T17:27:26.237Z,126.00
2022-12-24T17:29:54.639Z,124.20
2022-12-24T17:32:23.084Z,130.82
2022-12-24T17:34:51.300Z,125.03
2022-12-24T17:37:19.604Z,120.75
2022-12-24T17:39:47.916Z,116.22
2022-12-24T17:42:16.189Z,122.18
2022-12-24T17:44:44.793Z,125.85
2022-12-24T17:47:12.969Z,131.45
2022-12-24T17:49:41.199Z,137.88
2022-12-24T17:52:09.387Z,128.93
2022-12-24T17:54:37.622Z,136.40
2022-12-24T17:57:05.925Z,135.90
2022-12-24T17:59:34.066Z,132.75
2022-12-24T18:02:02.410Z,125.38
2022-12-24T18:04:30.803Z,123.80
2022-12-24T18:07:02.751Z,134.27
2022-12-24T18:09:31.852Z,122.88
2022-12-24T18:12:01.088Z,122.57
2022-12-24T18:14:29.440Z,124.22
2022-12-24T18:16:57.811Z,121.30
2022-12-24T18:19:26.210Z,114.32
2022-12-24T18:21:54.525Z,127.15
2022-12-24T18:24:22.757Z,119.95
2022-12-24T18:26:50.980Z,123.45
2022-12-24T18:29:22.123Z,116.68
2022-12-24T18:31:50.465Z,111.63
2022-12-24T18:34:18.755Z,119.78
2022-12-24T18:36:52.896Z,119.45
2022-12-24T18:39:23.511Z,114.75
2022-12-24T18:42:14.820Z,117.18
2022-12-24T18:44:44.075Z,110.88
2022-12-24T18:47:12.587Z,99.45
2022-12-24T18:49:40.957Z,112.63
2022-12-24T18:52:11.501Z,103.70
2022-12-24T18:54:40.564Z,107.75
2022-12-24T18:57:08.952Z,104.93
2022-12-24T18:59:39.105Z,99.70
2022-12-24T19:02:07.572Z,103.60
2022-12-24T19:04:35.892Z,95.75
2022-12-24T19:07:04.135Z,105.43
2022-12-24T19:09:32.321Z,104.75
2022-12-24T19:12:00.524Z,110.57
2022-12-24T19:14:28.708Z,105.45
2022-12-24T19:16:57.040Z,110.80
2022-12-24T19:19:28.027Z,106.05
2022-12-24T19:21:56.321Z,97.32
2022-12-24T19:24:24.549Z,101.63
2022-12-24T19:26:53.898Z,92.45
2022-12-24T19:29:22.146Z,97.00
2022-12-24T19:31:50.396Z,96.38
2022-12-24T19:34:19.369Z,103.57
2022-12-24T19:36:48.174Z,102.28
2022-12-24T19:39:17.667Z,96.57
2022-12-24T19:41:48.042Z,101.60
2022-12-24T19:44:16.257Z,94.43
2022-12-24T19:46:44.531Z,99.80
2022-12-24T19:49:13.416Z,99.10
2022-12-24T19:51:43.921Z,90.18
2022-12-24T19:54:18.581Z,87.70
2022-12-24T19:56:47.472Z,95.50
2022-12-24T19:59:22.112Z,89.97
2022-12-24T20:01:50.965Z,94.68
2022-12-24T20:04:21.677Z,93.47
2022-12-24T20:06:52.356Z,86.10
2022-12-24T20:09:24.833Z,88.20
2022-12-24T20:11:53.857Z,91.13
2022-12-24T20:14:22.037Z,93.78
2022-12-24T20:16:52.856Z,83.80
2022-12-24T20:19:22.474Z,92.95
2022-12-24T20:21:50.721Z,89.85
2022-12-24T20:24:19.118Z,91.22
2022-12-24T20:26:47.296Z,98.88
2022-12-24T20:29:15.566Z,101.70
2022-12-24T20:31:46.958Z,96.10
2022-12-24T20:34:15.274Z,86.60
2022-12-24T20:36:44.011Z,96.07
2022-12-24T20:39:13.245Z,91.97
2022-12-24T20:41:41.553Z,95.13
2022-12-24T20:44:11.040Z,100.47
2022-12-24T20:46:39.314Z,102.18
2022-12-24T20:49:07.593Z,90.80
2022-12-24T20:51:35.784Z,91.43
2022-12-24T20:54:04.056Z,87.10
2022-12-24T20:56:32.339Z,93.30
2022-12-24T20:59:02.013Z,87.10
2022-12-24T21:01:31.019Z,93.18
2022-12-24T21:04:05.023Z,88.97
2022-12-24T21:06:35.033Z,85.88
2022-12-24T21:09:04.411Z,81.63
2022-12-24T21:11:51.466Z,80.07
2022-12-24T21:14:25.934Z,87.15
2022-12-24T21:16:55.695Z,80.03
2022-12-24T21:19:25.708Z,79.75
2022-12-24T21:21:55.441Z,79.25
2022-12-24T21:24:25.332Z,71.85
2022-12-24T21:26:56.222Z,78.60
2022-12-24T21:29:25.392Z,79.60
2022-12-24T21:31:53.760Z,77.60
2022-12-24T21:34:22.435Z,70.03
2022-12-24T21:36:50.641Z,76.03
2022-12-24T21:39:18.919Z,70.97
2022-12-24T21:41:49.423Z,81.95
2022-12-24T21:44:19.266Z,94.47
2022-12-24T21:46:48.855Z,89.03
2022-12-24T21:49:38.321Z,96.97
2022-12-24T21:52:08.059Z,94.95
2022-12-24T21:54:36.398Z,92.32
2022-12-24T21:57:25.623Z,87.90
2022-12-24T21:59:55.991Z,95.75
2022-12-24T22:02:28.949Z,99.95
2022-12-24T22:05:00.174Z,97.72
2022-12-24T22:07:47.468Z,97.03
2022-12-24T22:10:34.344Z,107.57
2022-12-24T22:13:06.361Z,105.88
2022-12-24T22:15:36.343Z,111.60
2022-12-24T22:18:04.622Z,104.47
2022-12-24T22:20:34.052Z,110.68
2022-12-24T22:23:02.299Z,114.03
2022-12-24T22:25:31.736Z,109.45
2022-12-24T22:28:00.163Z,108.10
2022-12-24T22:30:28.611Z,116.15
2022-12-24T22:32:58.323Z,108.82
2022-12-24T22:35:26.783Z,106.82
2022-12-24T22:38:00.137Z,114.07
2022-12-24T22:40:29.283Z,101.57
2022-12-24T22:42:57.601Z,96.60
2022-12-24T22:45:25.856Z,102.85
2022-12-24T22:47:54.087Z,103.65
2022-12-24T22:50:22.591Z,107.20
2022-12-24T22:52:51.880Z,103.70
2022-12-24T22:55:20.195Z,109.15
2022-12-24T22:57:48.624Z,103.28
2022-12-24T23:00:37.912Z,106.57
2022-12-24T23:03:07.417Z,102.28
2022-12-24T23:05:39.168Z,81.27
2022-12-24T23:08:08.411Z,102.20
2022-12-24T23:10:37.187Z,98.65
2022-12-24T23:13:24.662Z,103.40
2022-12-24T23:15:52.961Z,104.38
2022-12-24T23:18:21.204Z,97.00
2022-12-24T23:20:49.394Z,100.90
2022-12-24T23:23:17.601Z,91.10
2022-12-24T23:25:45.860Z,94.00
2022-12-24T23:28:14.171Z,96.80
2022-12-24T23:30:42.469Z,95.63
2022-12-24T23:33:10.690Z,96.50
2022-12-24T23:35:38.869Z,90.38
2022-12-24T23:38:07.084Z,99.82
2022-12-24T23:40:35.283Z,100.60
2022-12-24T23:43:03.628Z,97.53
2022-12-24T23:45:31.883Z,85.60
2022-12-24T23:48:00.356Z,86.88
2022-12-24T23:50:28.557Z,80.35
2022-12-24T23:52:56.858Z,86.43
2022-12-24T23:55:25.027Z,85.60
2022-12-24T23:57:53.378Z,88.20
